createdAt,value
2018-10-02T00:01:02.310Z,11.20
2018-10-02T00:03:31.756Z,11.20
2018-10-02T00:06:01.157Z,11.10
2018-10-02T00:08:30.713Z,11.00
2018-10-02T00:11:05.600Z,11.10
2018-10-02T00:13:40.103Z,11.10
2018-10-02T00:16:09.247Z,11.00
2018-10-02T00:18:38.446Z,11.00
2018-10-02T00:21:08.129Z,11.00
2018-10-02T00:23:37.285Z,10.90
2018-10-02T00:26:06.538Z,10.90
2018-10-02T00:28:35.692Z,10.90
2018-10-02T00:31:05.262Z,10.80
2018-10-02T00:33:34.433Z,10.90
2018-10-02T00:36:03.661Z,10.80
2018-10-02T00:38:32.805Z,10.80
2018-10-02T00:41:02.014Z,10.80
2018-10-02T00:43:31.221Z,10.80
2018-10-02T00:46:00.475Z,10.80
2018-10-02T00:48:29.773Z,10.50
2018-10-02T00:50:58.997Z,10.60
2018-10-02T00:53:28.227Z,10.60
2018-10-02T00:55:57.422Z,10.60
2018-10-02T00:58:26.661Z,10.30
2018-10-02T01:00:55.841Z,10.30
2018-10-02T01:03:25.122Z,10.50
2018-10-02T01:05:54.330Z,10.50
2018-10-02T01:08:23.578Z,10.50
2018-10-02T01:10:52.775Z,10.60
2018-10-02T01:13:21.952Z,10.60
2018-10-02T01:15:55.587Z,10.40
2018-10-02T01:18:24.761Z,10.40
2018-10-02T01:20:53.955Z,10.30
2018-10-02T01:23:23.138Z,10.40
2018-10-02T01:25:52.319Z,10.40
2018-10-02T01:28:21.455Z,10.30
2018-10-02T01:30:50.605Z,10.40
2018-10-02T01:33:19.812Z,10.40
2018-10-02T01:35:48.988Z,10.40
2018-10-02T01:38:18.170Z,10.30
2018-10-02T01:40:47.322Z,10.10
2018-10-02T01:43:16.529Z,10.20
2018-10-02T01:45:45.669Z,10.20
2018-10-02T01:48:14.818Z,10.40
2018-10-02T01:50:44.030Z,10.30
2018-10-02T01:53:13.196Z,10.10
2018-10-02T01:55:42.334Z,10.30
2018-10-02T01:58:11.486Z,10.40
2018-10-02T02:00:40.692Z,10.20
2018-10-02T02:03:09.932Z,10.20
2018-10-02T02:05:39.084Z,10.20
2018-10-02T02:08:08.304Z,10.10
2018-10-02T02:10:37.457Z,10.10
2018-10-02T02:13:06.625Z,10.20
2018-10-02T02:15:35.780Z,10.10
2018-10-02T02:18:05.667Z,10.10
2018-10-02T02:20:34.835Z,10.10
2018-10-02T02:23:04.027Z,10.10
2018-10-02T02:25:33.193Z,10.10
2018-10-02T02:28:02.336Z,10.20
2018-10-02T02:30:31.548Z,10.00
2018-10-02T02:33:00.685Z,9.90
2018-10-02T02:35:29.833Z,9.90
2018-10-02T02:37:58.989Z,10.00
2018-10-02T02:40:28.109Z,10.00
2018-10-02T02:42:57.242Z,9.80
2018-10-02T02:45:26.400Z,9.80
2018-10-02T02:48:00.862Z,9.90
2018-10-02T02:50:35.558Z,9.90
2018-10-02T02:53:10.585Z,10.00
2018-10-02T02:55:39.733Z,9.80
2018-10-02T02:58:08.902Z,9.80
2018-10-02T03:00:38.054Z,9.80
2018-10-02T03:03:07.165Z,9.80
2018-10-02T03:05:36.331Z,9.80
2018-10-02T03:08:05.449Z,9.70
2018-10-02T03:10:34.589Z,9.70
2018-10-02T03:13:03.801Z,9.70
2018-10-02T03:15:32.933Z,9.80
2018-10-02T03:18:02.303Z,9.70
2018-10-02T03:20:31.493Z,9.70
2018-10-02T03:23:00.609Z,9.70
2018-10-02T03:25:29.729Z,9.60
2018-10-02T03:27:58.873Z,9.60
2018-10-02T03:30:28.067Z,9.70
2018-10-02T03:32:57.183Z,9.70
2018-10-02T03:35:26.311Z,9.70
2018-10-02T03:37:55.481Z,9.70
2018-10-02T03:40:24.978Z,9.70
2018-10-02T03:42:54.131Z,9.70
2018-10-02T03:45:23.279Z,9.70
2018-10-02T03:47:52.473Z,9.60
2018-10-02T03:50:21.665Z,9.70
2018-10-02T03:52:51.306Z,9.70
2018-10-02T03:55:20.514Z,9.60
2018-10-02T03:57:49.637Z,9.60
2018-10-02T04:00:19.035Z,9.50
2018-10-02T04:02:48.167Z,9.50
2018-10-02T04:05:17.371Z,9.50
2018-10-02T04:07:46.513Z,9.40
2018-10-02T04:10:15.634Z,9.40
2018-10-02T04:12:45.121Z,9.50
2018-10-02T04:15:14.241Z,9.40
2018-10-02T04:17:43.379Z,9.40
2018-10-02T04:20:12.518Z,9.40
2018-10-02T04:22:41.659Z,9.30
2018-10-02T04:25:10.793Z,9.30
2018-10-02T04:27:40.039Z,9.30
2018-10-02T04:30:09.236Z,9.40
2018-10-02T04:32:39.478Z,9.30
2018-10-02T04:35:08.628Z,9.40
2018-10-02T04:37:38.173Z,9.40
2018-10-02T04:40:07.352Z,9.30
2018-10-02T04:42:36.514Z,9.20
2018-10-02T04:45:06.444Z,9.10
2018-10-02T04:47:35.619Z,9.10
2018-10-02T04:50:04.848Z,9.10
2018-10-02T04:52:34.035Z,9.10
2018-10-02T04:55:03.388Z,9.10
2018-10-02T04:57:32.494Z,9.20
2018-10-02T05:00:01.683Z,9.20
2018-10-02T05:02:30.855Z,9.20
2018-10-02T05:05:00.057Z,9.20
2018-10-02T05:07:29.233Z,9.20
2018-10-02T05:09:58.414Z,9.20
2018-10-02T05:12:27.952Z,9.10
2018-10-02T05:14:57.252Z,9.10
2018-10-02T05:17:26.394Z,9.20
2018-10-02T05:19:55.707Z,9.10
2018-10-02T05:22:25.704Z,9.10
2018-10-02T05:24:54.955Z,9.10
2018-10-02T05:27:24.444Z,9.10
2018-10-02T05:29:53.589Z,9.10
2018-10-02T05:32:22.788Z,9.10
2018-10-02T05:34:52.083Z,9.00
2018-10-02T05:37:21.309Z,9.10
2018-10-02T05:39:50.486Z,9.00
2018-10-02T05:42:19.671Z,8.90
2018-10-02T05:44:48.871Z,9.00
2018-10-02T05:47:18.466Z,9.00
2018-10-02T05:49:47.589Z,9.00
2018-10-02T05:52:16.701Z,9.10
2018-10-02T05:54:45.810Z,9.20
2018-10-02T05:57:15.232Z,9.40
2018-10-02T05:59:44.357Z,9.50
2018-10-02T06:02:14.957Z,9.40
2018-10-02T06:04:44.172Z,9.50
2018-10-02T06:07:13.314Z,9.20
2018-10-02T06:09:42.520Z,9.20
2018-10-02T06:12:11.704Z,9.30
2018-10-02T06:14:40.843Z,9.40
2018-10-02T06:17:10.022Z,9.30
2018-10-02T06:19:39.700Z,9.40
2018-10-02T06:22:08.938Z,9.50
2018-10-02T06:24:38.166Z,9.60
2018-10-02T06:27:07.525Z,9.80
2018-10-02T06:29:36.637Z,9.90
2018-10-02T06:32:06.600Z,10.10
2018-10-02T06:34:35.899Z,10.20
2018-10-02T06:37:05.078Z,10.20
2018-10-02T06:39:34.428Z,10.10
2018-10-02T06:42:03.619Z,10.10
2018-10-02T06:44:33.105Z,10.20
2018-10-02T06:47:02.371Z,10.30
2018-10-02T06:49:31.599Z,10.30
2018-10-02T06:52:00.854Z,10.00
2018-10-02T06:54:29.918Z,10.00
2018-10-02T06:56:59.084Z,10.10
2018-10-02T06:59:28.196Z,10.10
2018-10-02T07:01:59.570Z,9.90
2018-10-02T07:04:30.431Z,10.00
2018-10-02T07:07:01.646Z,10.10
2018-10-02T07:09:30.846Z,10.40
2018-10-02T07:12:00.140Z,10.50
2018-10-02T07:14:29.286Z,10.80
2018-10-02T07:16:58.470Z,10.60
2018-10-02T07:19:27.602Z,10.80
2018-10-02T07:21:56.794Z,10.70
2018-10-02T07:24:25.954Z,10.80
2018-10-02T07:26:55.260Z,10.90
2018-10-02T07:29:24.359Z,10.90
2018-10-02T07:31:53.498Z,11.10
2018-10-02T07:34:22.641Z,10.90
2018-10-02T07:36:51.811Z,11.00
2018-10-02T07:39:20.930Z,11.00
2018-10-02T07:41:50.136Z,10.90
2018-10-02T07:44:20.173Z,11.10
2018-10-02T07:46:49.537Z,11.10
2018-10-02T07:49:19.890Z,11.20
2018-10-02T07:51:49.889Z,11.80
2018-10-02T07:54:19.041Z,12.10
2018-10-02T07:56:48.279Z,11.90
2018-10-02T07:59:17.454Z,11.90
2018-10-02T08:01:46.686Z,12.10
2018-10-02T08:04:15.872Z,12.20
2018-10-02T08:06:45.054Z,12.20
2018-10-02T08:09:14.204Z,12.10
2018-10-02T08:11:43.572Z,12.50
2018-10-02T08:14:12.669Z,12.70
2018-10-02T08:16:41.793Z,12.90
2018-10-02T08:19:10.942Z,12.60
2018-10-02T08:21:40.141Z,12.50
2018-10-02T08:24:09.310Z,12.90
2018-10-02T08:26:38.701Z,13.00
2018-10-02T08:29:07.946Z,12.50
2018-10-02T08:31:37.081Z,12.60
2018-10-02T08:34:06.248Z,12.60
2018-10-02T08:36:35.910Z,12.50
2018-10-02T08:39:07.860Z,12.30
2018-10-02T08:41:37.183Z,12.50
2018-10-02T08:44:06.779Z,12.20
2018-10-02T08:46:35.957Z,12.60
2018-10-02T08:49:05.164Z,12.50
2018-10-02T08:51:34.346Z,12.60
2018-10-02T08:54:03.561Z,12.90
2018-10-02T08:56:32.961Z,12.90
2018-10-02T08:59:02.230Z,13.20
2018-10-02T09:01:31.478Z,12.80
2018-10-02T09:04:00.727Z,12.70
2018-10-02T09:06:29.975Z,12.80
2018-10-02T09:08:59.139Z,12.90
2018-10-02T09:11:28.334Z,12.80
2018-10-02T09:13:57.516Z,13.00
2018-10-02T09:16:27.061Z,12.80
2018-10-02T09:18:56.213Z,12.90
2018-10-02T09:21:25.349Z,12.90
2018-10-02T09:23:54.434Z,13.10
2018-10-02T09:26:23.588Z,13.50
2018-10-02T09:28:52.774Z,13.60
2018-10-02T09:31:27.345Z,13.60
2018-10-02T09:34:01.963Z,13.60
2018-10-02T09:36:36.315Z,13.50
2018-10-02T09:39:12.605Z,13.60
2018-10-02T09:41:47.666Z,14.00
2018-10-02T09:44:16.887Z,14.30
2018-10-02T09:46:46.031Z,14.60
2018-10-02T09:49:15.605Z,14.20
2018-10-02T09:51:44.829Z,14.00
2018-10-02T09:54:13.927Z,14.10
2018-10-02T09:56:44.574Z,14.00
2018-10-02T09:59:15.323Z,13.50
2018-10-02T10:01:49.810Z,13.60
2018-10-02T10:04:19.094Z,13.70
2018-10-02T10:06:48.254Z,13.50
2018-10-02T10:09:17.412Z,13.40
2018-10-02T10:11:46.578Z,13.20
2018-10-02T10:14:15.801Z,13.20
2018-10-02T10:16:45.033Z,13.20
2018-10-02T10:19:14.055Z,13.50
2018-10-02T10:21:43.229Z,13.70
2018-10-02T10:24:12.486Z,13.90
2018-10-02T10:26:41.750Z,13.80
2018-10-02T10:29:10.805Z,13.90
2018-10-02T10:31:40.282Z,14.00
2018-10-02T10:34:09.979Z,14.20
2018-10-02T10:36:39.128Z,14.10
2018-10-02T10:39:09.426Z,14.10
2018-10-02T10:41:38.755Z,14.10
2018-10-02T10:44:08.138Z,14.00
2018-10-02T10:46:37.341Z,13.90
2018-10-02T10:49:06.942Z,13.60
2018-10-02T10:51:36.091Z,13.60
2018-10-02T10:54:05.235Z,13.80
2018-10-02T10:56:34.423Z,13.50
2018-10-02T10:59:04.013Z,13.50
2018-10-02T11:01:33.133Z,13.50
2018-10-02T11:04:02.310Z,13.70
2018-10-02T11:06:31.544Z,13.60
2018-10-02T11:09:00.705Z,13.60
2018-10-02T11:11:29.835Z,13.20
2018-10-02T11:13:59.031Z,13.50
2018-10-02T11:16:28.201Z,13.40
2018-10-02T11:18:57.499Z,13.20
2018-10-02T11:21:26.671Z,13.00
2018-10-02T11:23:55.923Z,13.40
2018-10-02T11:26:24.998Z,13.70
2018-10-02T11:28:54.142Z,13.80
2018-10-02T11:31:23.322Z,13.80
2018-10-02T11:33:52.408Z,14.00
2018-10-02T11:36:21.538Z,14.00
2018-10-02T11:38:50.724Z,14.10
2018-10-02T11:41:19.868Z,13.90
2018-10-02T11:43:49.052Z,13.90
2018-10-02T11:46:30.506Z,13.80
2018-10-02T11:48:59.681Z,13.90
2018-10-02T11:51:28.879Z,13.70
2018-10-02T11:53:59.383Z,13.90
2018-10-02T11:56:28.574Z,13.80
2018-10-02T11:58:57.747Z,13.30
2018-10-02T12:01:28.085Z,13.40
2018-10-02T12:03:57.142Z,13.50
2018-10-02T12:06:26.274Z,13.80
2018-10-02T12:08:55.503Z,13.60
2018-10-02T12:11:24.733Z,14.10
2018-10-02T12:13:53.889Z,14.10
2018-10-02T12:16:22.996Z,14.40
2018-10-02T12:18:52.163Z,14.10
2018-10-02T12:21:21.297Z,13.80
2018-10-02T12:23:50.468Z,13.90
2018-10-02T12:26:19.609Z,14.10
2018-10-02T12:28:48.749Z,13.80
2018-10-02T12:31:17.930Z,13.90
2018-10-02T12:33:47.063Z,14.10
2018-10-02T12:36:16.272Z,13.70
2018-10-02T12:38:45.657Z,13.90
2018-10-02T12:41:14.724Z,13.80
2018-10-02T12:43:45.447Z,13.80
2018-10-02T12:46:14.859Z,13.90
2018-10-02T12:48:44.347Z,13.80
2018-10-02T12:51:13.675Z,13.90
2018-10-02T12:53:42.821Z,14.00
2018-10-02T12:56:11.920Z,13.70
2018-10-02T12:58:41.078Z,13.90
2018-10-02T13:01:14.821Z,13.60
2018-10-02T13:03:43.943Z,13.60
2018-10-02T13:06:13.084Z,13.80
2018-10-02T13:08:42.293Z,13.80
2018-10-02T13:11:11.457Z,13.70
2018-10-02T13:16:20.632Z,13.60
2018-10-02T13:18:49.933Z,13.60
2018-10-02T13:21:19.074Z,13.80
2018-10-02T13:23:48.293Z,13.80
2018-10-02T13:26:17.456Z,13.50
2018-10-02T13:28:46.578Z,13.40
2018-10-02T13:31:15.779Z,13.50
2018-10-02T13:33:44.972Z,13.60
2018-10-02T13:36:14.544Z,13.50
2018-10-02T13:38:43.770Z,13.60
2018-10-02T13:41:12.931Z,13.60
2018-10-02T13:43:42.125Z,13.60
2018-10-02T13:46:11.669Z,13.50
2018-10-02T13:48:40.837Z,13.40
2018-10-02T13:51:09.959Z,13.40
2018-10-02T13:53:39.164Z,13.40
2018-10-02T13:56:08.354Z,13.60
2018-10-02T13:58:37.555Z,13.70
2018-10-02T14:01:06.956Z,13.70
2018-10-02T14:03:36.110Z,13.40
2018-10-02T14:06:05.287Z,13.50
2018-10-02T14:08:34.472Z,13.50
2018-10-02T14:11:03.855Z,13.20
2018-10-02T14:13:33.050Z,13.30
2018-10-02T14:16:02.253Z,13.20
2018-10-02T14:18:31.407Z,13.10
2018-10-02T14:21:00.602Z,13.20
2018-10-02T14:23:30.002Z,13.20
2018-10-02T14:25:59.162Z,13.00
2018-10-02T14:28:28.283Z,12.90
2018-10-02T14:30:57.463Z,12.90
2018-10-02T14:33:26.874Z,12.90
2018-10-02T14:35:56.027Z,12.70
2018-10-02T14:38:25.185Z,12.80
2018-10-02T14:40:54.348Z,12.90
2018-10-02T14:43:23.519Z,12.60
2018-10-02T14:45:53.110Z,12.50
2018-10-02T14:48:22.235Z,12.60
2018-10-02T14:50:51.385Z,12.40
2018-10-02T14:53:20.590Z,12.50
2018-10-02T14:55:49.834Z,12.60
2018-10-02T14:58:19.092Z,12.70
2018-10-02T15:00:48.293Z,12.70
2018-10-02T15:03:17.450Z,12.80
2018-10-02T15:05:46.647Z,12.70
2018-10-02T15:08:15.841Z,12.60
2018-10-02T15:10:45.158Z,12.80
2018-10-02T15:13:14.766Z,12.80
2018-10-02T15:15:44.014Z,12.70
2018-10-02T15:18:13.143Z,12.70
2018-10-02T15:20:42.347Z,12.60
2018-10-02T15:23:11.508Z,12.80
2018-10-02T15:25:40.667Z,12.80
2018-10-02T15:28:09.835Z,12.80
2018-10-02T15:30:39.028Z,12.80
2018-10-02T15:33:08.190Z,12.70
2018-10-02T15:35:37.457Z,12.90
2018-10-02T15:38:06.609Z,12.70
2018-10-02T15:40:36.614Z,12.70
2018-10-02T15:43:05.755Z,12.70
2018-10-02T15:45:34.884Z,12.70
2018-10-02T15:48:03.990Z,12.70
2018-10-02T15:50:33.153Z,12.70
2018-10-02T15:53:02.323Z,12.70
2018-10-02T15:55:31.465Z,12.90
2018-10-02T15:58:00.697Z,12.90
2018-10-02T16:00:30.092Z,13.00
2018-10-02T16:02:59.302Z,13.00
2018-10-02T16:05:28.505Z,13.10
2018-10-02T16:07:57.778Z,13.00
2018-10-02T16:10:26.940Z,12.90
2018-10-02T16:12:56.153Z,12.90
2018-10-02T16:15:25.348Z,13.00
2018-10-02T16:17:54.595Z,12.90
2018-10-02T16:20:24.066Z,12.80
2018-10-02T16:22:53.344Z,12.90
2018-10-02T16:25:22.596Z,13.00
2018-10-02T16:27:51.941Z,13.00
2018-10-02T16:30:21.097Z,12.90
2018-10-02T16:32:50.256Z,12.90
2018-10-02T16:35:19.399Z,12.90
2018-10-02T16:37:48.563Z,12.80
2018-10-02T16:40:17.810Z,13.00
2018-10-02T16:42:46.932Z,13.00
2018-10-02T16:45:16.154Z,13.10
2018-10-02T16:47:45.319Z,12.80
2018-10-02T16:50:14.514Z,12.80
2018-10-02T16:52:43.753Z,12.70
2018-10-02T16:55:12.890Z,12.90
2018-10-02T16:57:42.115Z,12.80
2018-10-02T17:00:11.272Z,12.70
2018-10-02T17:02:40.561Z,12.70
2018-10-02T17:05:09.863Z,12.80
2018-10-02T17:07:39.390Z,12.70
2018-10-02T17:10:08.607Z,12.90
2018-10-02T17:12:37.846Z,12.90
2018-10-02T17:15:07.378Z,12.70
2018-10-02T17:17:37.353Z,12.70
2018-10-02T17:20:07.079Z,12.70
2018-10-02T17:22:36.283Z,12.70
2018-10-02T17:25:05.599Z,12.80
2018-10-02T17:27:35.143Z,12.80
2018-10-02T17:30:04.755Z,12.90
2018-10-02T17:32:33.940Z,13.00
2018-10-02T17:35:03.095Z,12.90
2018-10-02T17:37:32.261Z,12.90
2018-10-02T17:40:01.568Z,12.80
2018-10-02T17:42:31.499Z,12.80
2018-10-02T17:45:00.694Z,12.80
2018-10-02T17:47:29.918Z,12.80
2018-10-02T17:49:59.099Z,12.80
2018-10-02T17:52:28.289Z,12.80
2018-10-02T17:54:57.614Z,12.90
2018-10-02T17:57:26.998Z,12.90
2018-10-02T17:59:56.226Z,12.80
2018-10-02T18:02:25.400Z,12.90
2018-10-02T18:04:54.736Z,13.00
2018-10-02T18:07:23.908Z,12.70
2018-10-02T18:09:53.185Z,12.90
2018-10-02T18:12:22.418Z,12.90
2018-10-02T18:14:51.610Z,12.80
2018-10-02T18:17:20.835Z,12.70
2018-10-02T18:19:50.059Z,12.60
2018-10-02T18:22:19.270Z,12.60
2018-10-02T18:24:48.461Z,12.60
2018-10-02T18:27:17.767Z,12.60
2018-10-02T18:29:46.990Z,12.60
2018-10-02T18:32:16.482Z,12.70
2018-10-02T18:34:45.766Z,12.80
2018-10-02T18:37:14.959Z,12.80
2018-10-02T18:39:44.387Z,12.60
2018-10-02T18:42:13.522Z,12.60
2018-10-02T18:44:42.709Z,12.70
2018-10-02T18:47:11.858Z,12.70
2018-10-02T18:49:41.434Z,12.60
2018-10-02T18:52:10.581Z,12.60
2018-10-02T18:54:39.788Z,12.50
2018-10-02T18:57:08.933Z,12.60
2018-10-02T18:59:44.941Z,12.50
2018-10-02T19:02:14.316Z,12.50
2018-10-02T19:04:43.487Z,12.50
2018-10-02T19:07:14.425Z,12.50
2018-10-02T19:09:45.524Z,12.70
2018-10-02T19:12:18.306Z,12.70
2018-10-02T19:14:47.497Z,12.60
2018-10-02T19:17:16.794Z,12.60
2018-10-02T19:19:51.413Z,12.50
2018-10-02T19:22:20.661Z,12.50
2018-10-02T19:24:49.974Z,12.50
2018-10-02T19:27:19.574Z,12.50
2018-10-02T19:29:53.189Z,12.40
2018-10-02T19:32:22.549Z,12.60
2018-10-02T19:34:51.851Z,12.60
2018-10-02T19:37:26.201Z,12.60
2018-10-02T19:39:55.488Z,12.50
2018-10-02T19:42:24.726Z,12.60
2018-10-02T19:44:53.944Z,12.40
2018-10-02T19:47:23.134Z,12.50
2018-10-02T19:50:01.522Z,12.50
2018-10-02T19:52:30.919Z,12.40
2018-10-02T19:55:00.194Z,12.50
2018-10-02T19:57:29.420Z,12.40
2018-10-02T19:59:58.915Z,12.30
2018-10-02T20:02:28.020Z,12.30
2018-10-02T20:04:57.224Z,12.50
2018-10-02T20:07:26.528Z,12.50
2018-10-02T20:09:56.003Z,12.50
2018-10-02T20:12:25.186Z,12.60
2018-10-02T20:14:54.350Z,12.60
2018-10-02T20:17:23.526Z,12.60
2018-10-02T20:19:52.657Z,12.40
2018-10-02T20:22:21.811Z,12.40
2018-10-02T20:24:51.051Z,12.40
2018-10-02T20:27:20.307Z,12.50
2018-10-02T20:29:49.643Z,12.50
2018-10-02T20:32:18.865Z,12.50
2018-10-02T20:34:48.036Z,12.50
2018-10-02T20:37:17.251Z,12.40
2018-10-02T20:39:46.427Z,12.40
2018-10-02T20:42:15.632Z,12.40
2018-10-02T20:44:44.800Z,12.40
2018-10-02T20:47:13.973Z,12.50
2018-10-02T20:49:43.544Z,12.50
2018-10-02T20:52:12.711Z,12.60
2018-10-02T20:54:41.953Z,12.60
2018-10-02T20:57:11.200Z,12.40
2018-10-02T20:59:40.440Z,12.30
2018-10-02T21:02:09.613Z,12.30
2018-10-02T21:04:38.769Z,12.30
2018-10-02T21:07:08.175Z,12.40
2018-10-02T21:09:37.411Z,12.30
2018-10-02T21:12:06.642Z,12.40
2018-10-02T21:14:35.815Z,12.30
2018-10-02T21:17:05.874Z,12.30
2018-10-02T21:19:35.011Z,12.20
2018-10-02T21:22:04.165Z,12.30
2018-10-02T21:24:33.369Z,12.40
2018-10-02T21:27:02.517Z,12.40
2018-10-02T21:29:31.663Z,12.40
2018-10-02T21:32:00.919Z,12.40
2018-10-02T21:34:30.110Z,12.40
2018-10-02T21:36:59.256Z,12.30
2018-10-02T21:39:28.388Z,12.30
2018-10-02T21:41:57.554Z,12.20
2018-10-02T21:44:26.748Z,12.30
2018-10-02T21:46:55.943Z,12.10
2018-10-02T21:49:25.083Z,12.20
2018-10-02T21:51:54.285Z,12.10
2018-10-02T21:54:23.474Z,12.20
2018-10-02T21:56:52.670Z,12.10
2018-10-02T21:59:22.189Z,12.20
2018-10-02T22:01:51.362Z,12.10
2018-10-02T22:04:26.981Z,12.00
2018-10-02T22:06:56.362Z,12.10
2018-10-02T22:09:25.543Z,12.00
2018-10-02T22:11:54.718Z,12.00
2018-10-02T22:14:23.936Z,11.90
2018-10-02T22:16:53.053Z,12.00
2018-10-02T22:19:22.226Z,12.10
2018-10-02T22:21:51.392Z,12.10
2018-10-02T22:24:20.610Z,12.20
2018-10-02T22:26:49.758Z,12.30
2018-10-02T22:29:19.005Z,12.30
2018-10-02T22:31:48.151Z,12.20
2018-10-02T22:34:17.359Z,12.30
2018-10-02T22:36:46.565Z,12.40
2018-10-02T22:39:15.756Z,12.40
2018-10-02T22:41:44.882Z,12.40
2018-10-02T22:44:14.071Z,12.40
2018-10-02T22:46:43.358Z,12.40
2018-10-02T22:49:12.499Z,12.40
2018-10-02T22:51:41.653Z,12.30
2018-10-02T22:54:11.202Z,12.30
2018-10-02T22:56:40.340Z,12.40
2018-10-02T22:59:10.152Z,12.30
2018-10-02T23:01:39.389Z,12.30
2018-10-02T23:04:08.590Z,12.20
2018-10-02T23:06:37.776Z,12.30
2018-10-02T23:09:09.337Z,12.20
2018-10-02T23:11:38.477Z,12.20
2018-10-02T23:14:07.930Z,12.10
2018-10-02T23:16:37.106Z,12.30
2018-10-02T23:19:06.352Z,12.30
2018-10-02T23:21:35.623Z,12.20
2018-10-02T23:24:04.818Z,12.30
2018-10-02T23:26:33.965Z,12.30
2018-10-02T23:29:03.076Z,12.40
2018-10-02T23:31:32.218Z,12.50
2018-10-02T23:34:01.656Z,12.40
2018-10-02T23:36:30.777Z,12.40
2018-10-02T23:38:59.906Z,12.20
2018-10-02T23:41:29.053Z,12.30
2018-10-02T23:43:58.338Z,12.20
2018-10-02T23:46:27.494Z,12.20
2018-10-02T23:48:56.613Z,12.30
2018-10-02T23:51:25.830Z,12.20
2018-10-02T23:53:54.944Z,12.20
2018-10-02T23:56:24.088Z,12.30
2018-10-02T23:58:53.242Z,12.40
